الصفحة الرئيسية
METAR-TAF:

METAR-TAF

مطار :

Gaines County Airport

سيمينول, تكساس, الولايات المتحدة

دائرة عرض: 32-40-31N, خط طول: 102-39-09W, ارتفاع: 1010 متر

مراقبة الطقس الحالي

تاريخ ووقت الإصدار 28 دقيقة قبل الساعة 12:55UTC
ريح 28 عقدة من الشمال تتزايد حتى 37 عقدة
درجة الحرارة 2°درجة مئوية
الرطوبة 93%
ضغط 1011 hPa
الرؤية: 16.1 كم
غيوم متفرقة على ارتفاع 700 قدم
غيوم مفككة على ارتفاع 1300 قدم
ملبد بالغيوم على ارتفاع 8500 قدم
مطر خفيف

METAR: KGNC 131255Z AUTO 01028G37KT 10SM -RA SCT007 BKN013 OVC085 02/01 A2986 RMK AO2 T00190005

زمن: 07:23 (13:23 UTC)


TAF: مفقودة

أرصاد الطقس والتوقعات من أكثر من 4000 مطار (تقارير الطقس للمطار METAR والتنبؤ بالطقس بالمطارTAF).

المحطات المتاحة هي النقط الصفراء والحمراء على الخريطة.

حرك المؤشر فوق النقطة لمعرفة اسم المحطة.

ثم انقر لمعرفة أرصاد وتوقعات الطقس.

لتغيير الخارطة: اضغط على الأزرار الخضراء مع رمز الصليب الأسود للتكبير. على الزر الأخضر مع شرطة للتصغير، أو على الأسهم الخضراء للخرائط المجاورة.


METAR-TAF: